Time;durP1;ratioP1;P1;durP2;ratioP2;P2;SDS_P1;SDS_P2;PMS_P1;PMS_P2;Temp;Humidity;BMP_temperature;BMP_pressure;BME280_temperature;BME280_humidity;BME280_pressure;Samples;Min_cycle;Max_cycle;Signal;HPM_P1;HPM_P2
2021/10/03 00:02:11;;;;;;;11.13;5.18;;;384.90;1280.00;;;;;;4939748;29;20020;-67
2021/10/03 00:04:38;;;;;;;13.05;5.10;;;384.80;1280.00;;;;;;4940307;29;20035;-67
2021/10/03 00:07:04;;;;;;;10.13;4.53;;;384.80;1280.00;;;;;;4939841;29;20099;-72
2021/10/03 00:09:31;;;;;;;12.02;5.03;;;384.80;1280.00;;;;;;4939468;29;20027;-72
2021/10/03 00:11:57;;;;;;;9.45;5.10;;;384.90;1280.00;;;;;;4939701;29;20042;-72
2021/10/03 00:14:23;;;;;;;8.05;5.00;;;384.80;1280.00;;;;;;4939647;29;20095;-71
2021/10/03 00:16:52;;;;;;;13.13;5.68;;;384.80;1280.00;;;;;;4939659;29;20486;-72
2021/10/03 00:19:20;;;;;;;8.32;4.90;;;384.80;1280.00;;;;;;4939534;29;20038;-71
2021/10/03 00:21:46;;;;;;;8.35;5.40;;;384.80;1280.00;;;;;;4939757;29;20470;-71
2021/10/03 00:24:15;;;;;;;11.02;4.65;;;384.80;1280.00;;;;;;4939318;29;20031;-71
2021/10/03 00:26:41;;;;;;;14.65;6.07;;;384.80;1280.00;;;;;;4939390;29;20079;-71
2021/10/03 00:29:07;;;;;;;9.27;5.22;;;384.80;1280.00;;;;;;4939350;29;20028;-72
2021/10/03 00:31:32;;;;;;;5.22;4.53;;;384.80;1280.00;;;;;;4939091;29;20035;-71
2021/10/03 00:33:58;;;;;;;16.50;5.20;;;384.80;1280.00;;;;;;4939416;29;20051;-72
2021/10/03 00:36:24;;;;;;;14.40;5.68;;;384.80;1280.00;;;;;;4938904;29;20059;-72
2021/10/03 00:38:50;;;;;;;9.52;4.90;;;384.80;1280.00;;;;;;4939112;29;20147;-71
2021/10/03 00:41:16;;;;;;;11.98;5.32;;;384.80;1280.00;;;;;;4939111;29;20031;-72
2021/10/03 00:43:42;;;;;;;7.90;4.68;;;384.80;1280.00;;;;;;4939120;29;20466;-72
2021/10/03 00:46:08;;;;;;;11.00;4.93;;;384.80;1280.00;;;;;;4938879;29;20042;-72
2021/10/03 00:48:34;;;;;;;8.73;6.03;;;384.80;1280.00;;;;;;4938817;29;20526;-71
2021/10/03 00:51:00;;;;;;;15.48;5.20;;;384.80;1280.00;;;;;;4938561;29;20063;-71
2021/10/03 00:53:29;;;;;;;7.35;4.40;;;384.80;1280.00;;;;;;4938928;29;20050;-71
2021/10/03 00:55:55;;;;;;;10.70;4.72;;;384.80;1280.00;;;;;;4938863;29;20090;-71
2021/10/03 00:58:21;;;;;;;10.70;5.00;;;384.80;1280.00;;;;;;4938826;29;20032;-71
2021/10/03 01:00:47;;;;;;;9.90;4.68;;;384.80;1280.00;;;;;;4938886;29;20542;-72
2021/10/03 01:03:13;;;;;;;9.77;4.72;;;384.80;1280.00;;;;;;4938532;29;20040;-71
2021/10/03 01:05:39;;;;;;;8.90;4.60;;;384.80;1280.00;;;;;;4938404;29;20028;-72
2021/10/03 01:08:06;;;;;;;7.65;4.38;;;384.80;1280.00;;;;;;4921097;29;20035;-71
2021/10/03 01:10:34;;;;;;;13.10;4.60;;;384.80;1280.00;;;;;;4938524;29;20043;-71
2021/10/03 01:13:09;;;;;;;8.35;5.10;;;384.70;1280.00;;;;;;4938607;29;20023;-71
2021/10/03 01:15:41;;;;;;;8.07;4.43;;;384.80;1280.00;;;;;;4938526;29;20043;-72
2021/10/03 01:18:08;;;;;;;7.78;4.57;;;384.80;1280.00;;;;;;4938339;29;20059;-71
2021/10/03 01:20:34;;;;;;;8.38;4.55;;;384.80;1280.00;;;;;;4938437;29;20035;-71
2021/10/03 01:23:03;;;;;;;9.15;4.68;;;384.70;1305.60;;;;;;4938505;29;20473;-71
2021/10/03 01:25:34;;;;;;;9.23;5.32;;;384.70;1280.00;;;;;;4938384;29;20410;-71
2021/10/03 01:28:02;;;;;;;9.88;4.47;;;384.70;1280.00;;;;;;4938312;29;20034;-71
2021/10/03 01:30:28;;;;;;;10.93;4.30;;;384.70;1280.00;;;;;;4937754;29;20094;-71
2021/10/03 01:32:54;;;;;;;13.13;4.47;;;384.60;1280.00;;;;;;4938213;29;20474;-71
2021/10/03 01:35:20;;;;;;;15.93;6.20;;;384.60;1305.60;;;;;;4938165;29;20028;-72
2021/10/03 01:37:49;;;;;;;14.15;4.75;;;384.60;1280.00;;;;;;4938007;29;20052;-71
2021/10/03 01:40:15;;;;;;;8.85;4.80;;;384.50;1305.60;;;;;;4938089;29;20686;-71
2021/10/03 01:42:41;;;;;;;9.30;4.57;;;384.50;1305.60;;;;;;4938053;29;20031;-71
2021/10/03 01:45:18;;;;;;;11.73;4.45;;;384.50;1305.60;;;;;;4938108;29;20481;-71
2021/10/03 01:48:07;;;;;;;7.63;4.38;;;384.40;1331.20;;;;;;4938058;29;20048;-71
2021/10/03 01:50:55;;;;;;;10.02;4.63;;;384.30;1331.20;;;;;;4937812;29;20042;-72
2021/10/03 01:53:24;;;;;;;8.05;4.28;;;384.30;1305.60;;;;;;4937800;29;20040;-72
2021/10/03 01:55:51;;;;;;;13.65;4.78;;;384.30;1305.60;;;;;;4937740;29;20023;-71
2021/10/03 01:58:19;;;;;;;9.45;4.72;;;384.20;1331.20;;;;;;4937665;29;20378;-71
2021/10/03 02:00:48;;;;;;;7.30;4.60;;;384.20;1331.20;;;;;;4937472;29;20024;-72
2021/10/03 02:03:15;;;;;;;7.38;4.32;;;384.20;1331.20;;;;;;4920624;29;20054;-71
2021/10/03 02:05:43;;;;;;;7.43;4.05;;;384.20;1331.20;;;;;;4937561;29;20023;-71
2021/10/03 02:08:11;;;;;;;7.20;4.55;;;384.20;1331.20;;;;;;4937589;29;20486;-72
2021/10/03 02:10:39;;;;;;;12.68;5.30;;;384.10;1356.80;;;;;;4937292;29;20070;-71
2021/10/03 02:13:06;;;;;;;12.32;4.57;;;384.20;1356.80;;;;;;4920393;29;20028;-72
2021/10/03 02:15:33;;;;;;;7.45;4.55;;;384.10;1356.80;;;;;;4937590;29;20112;-72
2021/10/03 02:17:58;;;;;;;11.18;4.53;;;384.10;1356.80;;;;;;4937542;29;20024;-71
2021/10/03 02:20:25;;;;;;;8.40;4.47;;;384.10;1356.80;;;;;;4937402;29;20046;-71
2021/10/03 02:22:53;;;;;;;18.02;4.93;;;384.10;1356.80;;;;;;4937416;29;20102;-67
2021/10/03 02:25:19;;;;;;;12.85;4.50;;;384.10;1356.80;;;;;;4937209;29;20026;-71
2021/10/03 02:27:45;;;;;;;10.93;4.93;;;384.00;1356.80;;;;;;4937460;29;20470;-72
2021/10/03 02:30:11;;;;;;;9.93;4.63;;;384.00;1356.80;;;;;;4937081;29;20039;-71
2021/10/03 02:32:37;;;;;;;10.60;4.40;;;384.00;1356.80;;;;;;4937122;29;20051;-71
2021/10/03 02:35:06;;;;;;;13.63;4.78;;;384.10;1382.40;;;;;;4936965;29;20066;-71
2021/10/03 02:37:32;;;;;;;13.20;4.53;;;384.10;1356.80;;;;;;4937052;29;20156;-71
2021/10/03 02:40:11;;;;;;;7.93;4.55;;;384.00;1382.40;;;;;;4936937;29;20063;-71
2021/10/03 02:42:37;;;;;;;6.53;4.55;;;384.00;1382.40;;;;;;4937067;29;20094;-71
2021/10/03 02:45:07;;;;;;;13.10;4.57;;;384.00;1382.40;;;;;;4937117;29;20021;-71
2021/10/03 02:47:33;;;;;;;9.85;4.63;;;384.00;1382.40;;;;;;4936959;29;20102;-71
2021/10/03 02:49:59;;;;;;;8.65;4.78;;;384.00;1382.40;;;;;;4936863;29;20497;-71
2021/10/03 02:52:25;;;;;;;13.73;4.60;;;384.10;1382.40;;;;;;4936883;29;20127;-71
2021/10/03 02:54:51;;;;;;;9.27;4.90;;;384.10;1356.80;;;;;;4936815;29;20032;-71
2021/10/03 02:57:17;;;;;;;12.45;5.45;;;384.00;1356.80;;;;;;4936786;29;20020;-71
2021/10/03 02:59:43;;;;;;;7.68;4.57;;;384.10;1356.80;;;;;;4936775;29;20038;-71
2021/10/03 03:02:08;;;;;;;11.25;6.25;;;384.10;1356.80;;;;;;4936622;29;20102;-71
2021/10/03 03:04:34;;;;;;;8.48;4.70;;;384.10;1356.80;;;;;;4936674;29;20020;-71
2021/10/03 03:07:00;;;;;;;10.63;4.90;;;384.00;1356.80;;;;;;4936660;29;20028;-71
2021/10/03 03:09:26;;;;;;;10.07;4.80;;;384.00;1356.80;;;;;;4936428;29;20024;-71
2021/10/03 03:11:52;;;;;;;11.10;4.72;;;384.00;1356.80;;;;;;4935810;29;20074;-71
2021/10/03 03:14:18;;;;;;;12.55;5.20;;;384.00;1356.80;;;;;;4936497;29;20027;-72
2021/10/03 03:16:49;;;;;;;9.68;4.53;;;384.00;1356.80;;;;;;4936677;29;20028;-72
2021/10/03 03:19:16;;;;;;;9.95;4.65;;;384.00;1356.80;;;;;;4936485;29;20104;-71
2021/10/03 03:21:42;;;;;;;9.38;5.13;;;384.00;1356.80;;;;;;4936552;29;20089;-70
2021/10/03 03:24:08;;;;;;;13.00;5.05;;;384.00;1356.80;;;;;;4936345;29;20087;-71
2021/10/03 03:26:35;;;;;;;9.05;4.53;;;384.00;1356.80;;;;;;4936473;29;20370;-71
2021/10/03 03:29:01;;;;;;;8.32;4.63;;;384.00;1356.80;;;;;;4936974;29;20055;-71
2021/10/03 03:31:27;;;;;;;17.27;4.88;;;384.00;1356.80;;;;;;4936199;29;20500;-71
2021/10/03 03:33:53;;;;;;;8.95;4.40;;;384.00;1356.80;;;;;;4936347;29;20059;-71
2021/10/03 03:36:20;;;;;;;14.60;5.57;;;384.00;1356.80;;;;;;4936314;29;20071;-71
2021/10/03 03:38:46;;;;;;;9.50;4.60;;;384.00;1356.80;;;;;;4936174;29;20564;-71
2021/10/03 03:41:13;;;;;;;9.23;5.10;;;384.00;1356.80;;;;;;4936323;29;20102;-72
2021/10/03 03:43:40;;;;;;;8.85;4.50;;;384.00;1356.80;;;;;;4919321;29;20035;-71
2021/10/03 03:46:05;;;;;;;21.30;5.82;;;384.00;1356.80;;;;;;4936244;29;20046;-71
2021/10/03 03:48:31;;;;;;;9.85;5.05;;;359.30;1356.80;;;;;;4936252;29;20028;-71
2021/10/03 03:50:57;;;;;;;8.88;5.47;;;359.30;1356.80;;;;;;4919293;29;20038;-71
2021/10/03 03:53:23;;;;;;;8.02;4.45;;;359.30;1356.80;;;;;;4936317;29;20028;-71
2021/10/03 03:55:48;;;;;;;12.20;4.85;;;359.30;1356.80;;;;;;4936099;29;20456;-71
2021/10/03 03:58:14;;;;;;;15.07;4.68;;;359.20;1356.80;;;;;;4936273;29;20034;-72
2021/10/03 04:00:40;;;;;;;8.43;4.82;;;359.20;1382.40;;;;;;4936209;29;20062;-71
2021/10/03 04:03:06;;;;;;;9.20;5.35;;;359.20;1382.40;;;;;;4936470;29;20498;-71
2021/10/03 04:05:31;;;;;;;9.52;4.50;;;359.10;1382.40;;;;;;4936164;29;20039;-71
2021/10/03 04:07:57;;;;;;;11.48;5.00;;;359.10;1382.40;;;;;;4936261;29;20430;-71
2021/10/03 04:10:23;;;;;;;9.15;4.80;;;359.10;1356.80;;;;;;4936074;29;20043;-72
2021/10/03 04:12:48;;;;;;;8.60;4.55;;;359.10;1356.80;;;;;;4935616;29;20031;-71
2021/10/03 04:15:14;;;;;;;13.98;5.78;;;359.10;1356.80;;;;;;4936095;29;20466;-71
2021/10/03 04:17:42;;;;;;;12.75;5.38;;;359.10;1382.40;;;;;;4935842;29;20035;-71
2021/10/03 04:20:08;;;;;;;21.25;6.70;;;359.10;1382.40;;;;;;4935958;29;20024;-71
2021/10/03 04:22:34;;;;;;;8.60;4.90;;;359.10;1382.40;;;;;;4937433;29;20109;-71
2021/10/03 04:25:00;;;;;;;12.82;5.13;;;359.10;1382.40;;;;;;4931250;29;20027;-71
2021/10/03 04:27:26;;;;;;;13.05;5.43;;;359.00;1382.40;;;;;;4939635;29;20031;-70
2021/10/03 04:29:52;;;;;;;9.13;4.68;;;359.00;1382.40;;;;;;4939432;29;20427;-71
2021/10/03 04:32:17;;;;;;;10.38;5.63;;;359.00;1382.40;;;;;;4939011;29;20478;-71
2021/10/03 04:34:43;;;;;;;13.55;5.20;;;359.00;1382.40;;;;;;4938556;29;20533;-71
2021/10/03 04:37:09;;;;;;;16.13;5.25;;;358.90;1382.40;;;;;;4939058;29;20056;-71
2021/10/03 04:39:36;;;;;;;11.40;4.85;;;358.90;1382.40;;;;;;4939291;29;20383;-71
2021/10/03 04:42:02;;;;;;;10.73;5.07;;;358.90;1408.00;;;;;;4939100;29;20489;-71
2021/10/03 04:44:28;;;;;;;10.15;4.80;;;358.90;1408.00;;;;;;4939215;29;20016;-71
2021/10/03 04:46:54;;;;;;;14.43;5.80;;;358.90;1408.00;;;;;;4939220;29;20139;-71
2021/10/03 04:49:19;;;;;;;10.80;5.55;;;358.90;1382.40;;;;;;4938625;29;20051;-71
2021/10/03 04:51:45;;;;;;;10.77;5.22;;;358.90;1382.40;;;;;;4938761;29;20557;-71
2021/10/03 04:54:11;;;;;;;12.20;4.80;;;358.90;1382.40;;;;;;4938965;29;20024;-71
2021/10/03 04:56:37;;;;;;;11.15;5.60;;;358.90;1382.40;;;;;;4938884;29;20087;-71
2021/10/03 04:59:02;;;;;;;10.65;5.45;;;358.90;1408.00;;;;;;4939006;29;20102;-71
2021/10/03 05:01:28;;;;;;;10.75;5.57;;;358.90;1408.00;;;;;;4938741;29;20128;-71
2021/10/03 05:03:54;;;;;;;11.70;5.38;;;358.90;1408.00;;;;;;4938849;29;20028;-71
2021/10/03 05:06:20;;;;;;;10.40;5.05;;;358.90;1408.00;;;;;;4938760;29;20107;-71
2021/10/03 05:08:45;;;;;;;11.50;5.20;;;358.90;1408.00;;;;;;4938486;29;20477;-71
2021/10/03 05:11:11;;;;;;;9.45;6.10;;;358.90;1408.00;;;;;;4938709;29;20079;-71
2021/10/03 05:13:37;;;;;;;9.77;5.85;;;358.90;1408.00;;;;;;4938464;29;20058;-71
2021/10/03 05:16:03;;;;;;;11.35;5.68;;;358.90;1408.00;;;;;;4938624;29;20087;-71
2021/10/03 05:18:29;;;;;;;9.00;5.40;;;358.90;1408.00;;;;;;4938336;29;20059;-71
2021/10/03 05:20:55;;;;;;;9.27;5.40;;;358.90;1408.00;;;;;;4938524;29;20417;-71
2021/10/03 05:23:21;;;;;;;8.70;5.38;;;358.90;1408.00;;;;;;4938347;29;20423;-69
2021/10/03 05:25:46;;;;;;;13.20;6.55;;;358.90;1408.00;;;;;;4938296;29;20031;-69
2021/10/03 05:28:12;;;;;;;16.25;5.55;;;358.90;1408.00;;;;;;4938195;29;20492;-69
2021/10/03 05:30:38;;;;;;;10.88;5.75;;;358.90;1408.00;;;;;;4938264;29;20050;-70
2021/10/03 05:33:04;;;;;;;9.63;5.45;;;358.90;1408.00;;;;;;4937674;29;20024;-71
2021/10/03 05:35:30;;;;;;;9.13;5.53;;;358.90;1408.00;;;;;;4937473;29;20103;-70
2021/10/03 05:37:55;;;;;;;13.75;5.70;;;358.90;1408.00;;;;;;4938158;29;20071;-71
2021/10/03 05:40:21;;;;;;;7.50;4.80;;;358.90;1408.00;;;;;;4937814;29;20478;-69
2021/10/03 05:42:47;;;;;;;15.20;5.63;;;358.90;1408.00;;;;;;4938222;29;20106;-68
2021/10/03 05:45:13;;;;;;;12.32;5.18;;;358.90;1408.00;;;;;;4938185;29;20027;-70
2021/10/03 05:47:38;;;;;;;9.38;5.38;;;359.00;1408.00;;;;;;4937927;29;20028;-69
2021/10/03 05:50:06;;;;;;;9.45;5.03;;;359.00;1408.00;;;;;;4937939;29;20035;-71
2021/10/03 05:52:33;;;;;;;12.13;5.70;;;359.00;1408.00;;;;;;4937771;29;20034;-71
2021/10/03 05:54:58;;;;;;;11.75;5.60;;;359.00;1408.00;;;;;;4937782;29;20035;-71
2021/10/03 05:57:24;;;;;;;13.07;5.80;;;359.00;1408.00;;;;;;4937736;29;20024;-67
2021/10/03 05:59:50;;;;;;;10.10;4.88;;;359.00;1408.00;;;;;;4935236;29;20031;-67
2021/10/03 06:02:16;;;;;;;7.55;4.82;;;359.00;1408.00;;;;;;4937452;29;20036;-66
2021/10/03 06:04:41;;;;;;;17.73;5.43;;;359.10;1408.00;;;;;;4937487;29;20047;-67
2021/10/03 06:07:07;;;;;;;10.25;5.22;;;359.10;1408.00;;;;;;4937083;29;20024;-67
2021/10/03 06:09:33;;;;;;;8.30;4.68;;;359.10;1433.60;;;;;;4937426;29;20062;-67
2021/10/03 06:11:58;;;;;;;10.77;4.70;;;359.10;1433.60;;;;;;4933054;29;20040;-67
2021/10/03 06:14:24;;;;;;;7.65;4.63;;;359.10;1433.60;;;;;;4930286;29;20123;-66
2021/10/03 06:16:50;;;;;;;14.35;4.45;;;359.20;1433.60;;;;;;4931763;29;20024;-67
2021/10/03 06:19:16;;;;;;;11.38;4.95;;;359.20;1433.60;;;;;;4927873;29;20490;-66
2021/10/03 06:21:43;;;;;;;11.15;4.68;;;359.20;1433.60;;;;;;4935696;29;20024;-67
2021/10/03 06:24:10;;;;;;;9.40;5.30;;;359.30;1433.60;;;;;;4936062;29;20028;-66
2021/10/03 06:26:36;;;;;;;20.92;4.65;;;359.30;1433.60;;;;;;4931252;29;20111;-66
2021/10/03 06:29:03;;;;;;;7.03;4.22;;;384.00;1408.00;;;;;;4916327;29;20119;-66
2021/10/03 06:31:29;;;;;;;8.40;4.82;;;384.00;1408.00;;;;;;4916839;29;20024;-66
2021/10/03 06:33:55;;;;;;;16.50;4.43;;;384.10;1408.00;;;;;;4917405;29;20043;-66
2021/10/03 06:36:21;;;;;;;10.95;4.15;;;384.10;1408.00;;;;;;4934995;29;20486;-67
2021/10/03 06:38:52;;;;;;;8.18;4.20;;;384.20;1408.00;;;;;;4936149;29;20051;-67
2021/10/03 06:41:18;;;;;;;17.10;4.88;;;384.30;1408.00;;;;;;4917383;29;20036;-67
2021/10/03 06:43:44;;;;;;;10.68;4.30;;;384.30;1408.00;;;;;;4916485;29;20371;-67
2021/10/03 06:46:10;;;;;;;9.60;4.03;;;384.40;1408.00;;;;;;4916025;29;20402;-67
2021/10/03 06:48:36;;;;;;;12.85;5.38;;;384.50;1408.00;;;;;;4917015;29;20035;-67
2021/10/03 06:51:03;;;;;;;13.80;5.45;;;384.60;1382.40;;;;;;4916498;29;20615;-67
2021/10/03 06:53:29;;;;;;;5.88;4.32;;;384.70;1382.40;;;;;;4916130;29;20035;-67
2021/10/03 06:55:56;;;;;;;9.57;4.20;;;384.80;1382.40;;;;;;4917309;29;20040;-67
2021/10/03 06:58:21;;;;;;;11.00;4.57;;;384.90;1382.40;;;;;;4916715;29;20037;-67
2021/10/03 07:00:47;;;;;;;8.32;4.20;;;409.70;1408.00;;;;;;4916209;29;20389;-66
2021/10/03 07:03:13;;;;;;;10.52;4.35;;;409.80;1382.40;;;;;;4916769;29;20099;-66
2021/10/03 07:05:39;;;;;;;14.13;4.45;;;409.90;1382.40;;;;;;4916813;29;20048;-67
2021/10/03 07:08:05;;;;;;;7.68;4.47;;;410.00;1382.40;;;;;;4918653;29;20024;-67
2021/10/03 07:10:32;;;;;;;7.55;4.15;;;410.10;1382.40;;;;;;4933949;29;20046;-67
2021/10/03 07:12:58;;;;;;;8.98;4.43;;;410.20;1382.40;;;;;;4935525;29;20103;-67
2021/10/03 07:15:24;;;;;;;15.43;4.70;;;410.40;1382.40;;;;;;4935494;29;20683;-67
2021/10/03 07:17:50;;;;;;;14.43;4.65;;;410.50;1356.80;;;;;;4935893;29;20028;-68
2021/10/03 07:20:15;;;;;;;10.18;4.45;;;435.30;1356.80;;;;;;4917572;29;20042;-67
2021/10/03 07:22:41;;;;;;;9.85;4.53;;;435.40;1356.80;;;;;;4933611;29;20020;-67
2021/10/03 07:25:08;;;;;;;14.30;4.43;;;435.60;1331.20;;;;;;4933957;29;20038;-66
2021/10/03 07:27:34;;;;;;;13.50;4.03;;;435.70;1331.20;;;;;;4935146;29;20020;-71
2021/10/03 07:30:00;;;;;;;14.63;4.30;;;435.90;1305.60;;;;;;4935335;29;20430;-71
2021/10/03 07:32:25;;;;;;;11.27;4.43;;;436.10;1280.00;;;;;;4935344;29;20046;-71
2021/10/03 07:34:52;;;;;;;16.35;4.60;;;460.80;1280.00;;;;;;4935331;29;20032;-68
2021/10/03 07:37:18;;;;;;;9.05;4.55;;;460.90;1305.60;;;;;;4935110;29;20043;-68
2021/10/03 07:39:43;;;;;;;9.85;4.45;;;461.10;1280.00;;;;;;4934779;29;20027;-70
2021/10/03 07:42:09;;;;;;;17.63;4.35;;;461.30;1254.40;;;;;;4935358;29;20043;-71
2021/10/03 07:44:35;;;;;;;12.43;4.72;;;461.40;1228.80;;;;;;4935303;29;20561;-71
2021/10/03 07:47:01;;;;;;;12.52;4.20;;;461.50;1228.80;;;;;;4935298;29;20028;-68
2021/10/03 07:49:27;;;;;;;18.23;4.60;;;461.60;1228.80;;;;;;4935291;29;20386;-70
2021/10/03 07:51:53;;;;;;;18.63;4.32;;;486.40;1228.80;;;;;;4934750;29;20059;-72
2021/10/03 07:54:19;;;;;;;10.93;4.25;;;486.50;1203.20;;;;;;4935150;29;20066;-68
2021/10/03 07:56:45;;;;;;;8.07;3.90;;;486.60;1203.20;;;;;;4935541;29;20587;-68
2021/10/03 07:59:10;;;;;;;13.15;4.80;;;486.80;1203.20;;;;;;4938970;29;20482;-71
2021/10/03 08:01:36;;;;;;;16.50;4.70;;;486.90;1203.20;;;;;;4938889;29;20036;-70
2021/10/03 08:04:03;;;;;;;8.00;3.88;;;487.00;1177.60;;;;;;4938731;29;20110;-71
2021/10/03 08:06:31;;;;;;;12.48;4.22;;;487.10;1152.00;;;;;;4938973;29;20043;-71
2021/10/03 08:08:57;;;;;;;8.90;4.55;;;487.20;1152.00;;;;;;4938454;29;20035;-69
2021/10/03 08:11:23;;;;;;;7.03;4.15;;;487.30;1126.40;;;;;;4921975;29;20039;-68
2021/10/03 08:13:50;;;;;;;9.93;4.32;;;512.00;1152.00;;;;;;4935324;29;20027;-67
2021/10/03 08:16:18;;;;;;;11.10;4.10;;;512.10;1126.40;;;;;;4938334;29;20582;-68
2021/10/03 08:18:44;;;;;;;18.20;5.03;;;512.30;1152.00;;;;;;4938085;29;20030;-69
2021/10/03 08:21:10;;;;;;;8.98;3.95;;;512.40;1126.40;;;;;;4937659;29;20027;-68
2021/10/03 08:23:36;;;;;;;9.02;3.92;;;512.40;1126.40;;;;;;4938223;29;20030;-68
2021/10/03 08:26:02;;;;;;;12.32;3.92;;;512.60;1100.80;;;;;;4930762;29;20447;-70
2021/10/03 08:28:27;;;;;;;8.25;4.25;;;512.70;1100.80;;;;;;4919235;29;20466;-70
2021/10/03 08:30:53;;;;;;;7.57;4.18;;;512.80;1075.20;;;;;;4919828;29;20042;-70
2021/10/03 08:33:19;;;;;;;11.07;4.20;;;512.90;1100.80;;;;;;4915598;29;20410;-69
2021/10/03 08:35:45;;;;;;;10.55;4.18;;;537.60;1126.40;;;;;;4917731;29;20051;-67
2021/10/03 08:38:11;;;;;;;14.00;5.25;;;537.70;1126.40;;;;;;4928406;29;20114;-71
2021/10/03 08:40:36;;;;;;;20.98;4.80;;;537.80;1100.80;;;;;;4937127;29;20549;-71
2021/10/03 08:43:05;;;;;;;17.33;4.35;;;537.90;1100.80;;;;;;4937612;29;20048;-67
2021/10/03 08:45:30;;;;;;;19.23;4.63;;;538.00;1100.80;;;;;;4937475;29;20026;-67
2021/10/03 08:47:58;;;;;;;9.30;4.68;;;538.10;1100.80;;;;;;4937264;29;20027;-65
2021/10/03 08:50:23;;;;;;;13.93;4.22;;;538.30;1100.80;;;;;;4937281;29;20039;-67
2021/10/03 08:52:49;;;;;;;10.43;4.03;;;538.30;1075.20;;;;;;4937008;29;20381;-69
2021/10/03 08:55:16;;;;;;;12.65;4.13;;;538.40;1075.20;;;;;;4918695;29;20036;-69
2021/10/03 08:57:42;;;;;;;8.48;4.07;;;563.20;1100.80;;;;;;4919098;29;20419;-67
2021/10/03 09:00:19;;;;;;;9.27;3.65;;;563.20;1100.80;;;;;;4919303;29;20111;-68
2021/10/03 09:02:52;;;;;;;16.48;4.65;;;563.30;1100.80;;;;;;4918450;29;20107;-69
2021/10/03 09:05:19;;;;;;;9.45;3.95;;;563.40;1075.20;;;;;;4917387;29;20040;-69
2021/10/03 09:08:09;;;;;;;11.30;4.55;;;563.50;1049.60;;;;;;4919003;29;20360;-67
2021/10/03 09:10:53;;;;;;;13.10;4.25;;;563.60;1049.60;;;;;;4901520;29;20035;-67
2021/10/03 09:13:40;;;;;;;10.98;4.15;;;563.70;1049.60;;;;;;4916888;29;20032;-68
2021/10/03 09:16:12;;;;;;;17.05;5.05;;;563.70;1049.60;;;;;;4901092;29;20028;-70
2021/10/03 09:18:42;;;;;;;13.02;3.95;;;563.70;1049.60;;;;;;4919231;29;20035;-69
2021/10/03 09:21:09;;;;;;;8.93;4.00;;;563.80;1024.00;;;;;;4919173;29;20032;-70
2021/10/03 09:23:35;;;;;;;9.15;3.85;;;563.80;1024.00;;;;;;4919183;29;20064;-67
2021/10/03 09:26:02;;;;;;;15.68;4.03;;;563.90;1024.00;;;;;;4931767;29;20040;-70
2021/10/03 09:28:33;;;;;;;15.82;4.50;;;564.00;1024.00;;;;;;4936997;29;20110;-67
2021/10/03 09:31:11;;;;;;;17.17;5.07;;;564.10;1024.00;;;;;;4936705;29;20482;-67
2021/10/03 09:33:53;;;;;;;14.07;4.13;;;564.10;998.40;;;;;;4937903;29;20027;-67
2021/10/03 09:36:28;;;;;;;10.23;3.75;;;588.80;998.40;;;;;;4937162;29;20434;-70
2021/10/03 09:39:07;;;;;;;7.53;3.67;;;588.80;1024.00;;;;;;4938105;29;20024;-68
2021/10/03 09:41:35;;;;;;;9.18;4.13;;;588.80;998.40;;;;;;4937653;29;20482;-68
2021/10/03 09:44:08;;;;;;;5.90;3.90;;;588.90;1024.00;;;;;;4938150;29;20038;-68
2021/10/03 09:47:00;;;;;;;8.30;3.83;;;589.00;998.40;;;;;;4937877;29;20039;-68
2021/10/03 09:49:26;;;;;;;20.75;4.72;;;589.10;998.40;;;;;;4934217;29;20032;-68
2021/10/03 09:51:53;;;;;;;9.70;4.00;;;589.10;998.40;;;;;;4937923;29;20193;-68
2021/10/03 09:54:21;;;;;;;8.50;4.40;;;589.10;998.40;;;;;;4937906;29;20023;-69
2021/10/03 09:56:48;;;;;;;8.88;3.97;;;589.20;1024.00;;;;;;4937921;29;20043;-69
2021/10/03 09:59:14;;;;;;;13.15;3.85;;;589.30;998.40;;;;;;4937932;29;20554;-68
2021/10/03 10:01:44;;;;;;;14.75;4.00;;;589.30;998.40;;;;;;4937500;29;20035;-68
2021/10/03 10:04:11;;;;;;;11.15;3.88;;;589.40;998.40;;;;;;4937708;29;20030;-68
2021/10/03 10:06:38;;;;;;;18.60;4.22;;;589.50;998.40;;;;;;4937631;29;20035;-68
2021/10/03 10:09:09;;;;;;;11.60;4.45;;;589.50;998.40;;;;;;4937628;29;20027;-69
2021/10/03 10:11:49;;;;;;;13.20;4.05;;;589.60;998.40;;;;;;4937379;29;20067;-69
2021/10/03 10:14:16;;;;;;;17.83;4.53;;;589.60;972.80;;;;;;4937684;29;20024;-69
2021/10/03 10:16:49;;;;;;;8.73;3.70;;;589.70;972.80;;;;;;4937441;29;20533;-68
2021/10/03 10:19:34;;;;;;;7.50;3.53;;;614.40;998.40;;;;;;4937818;29;20059;-68
2021/10/03 10:22:15;;;;;;;8.32;3.85;;;614.50;972.80;;;;;;4937244;29;20028;-68
2021/10/03 10:24:44;;;;;;;9.57;3.80;;;614.50;972.80;;;;;;4937195;29;20031;-68
2021/10/03 10:27:24;;;;;;;6.05;3.80;;;614.60;972.80;;;;;;4937372;29;20024;-69
2021/10/03 10:30:12;;;;;;;10.70;4.43;;;614.60;972.80;;;;;;4937625;29;20032;-69
2021/10/03 10:32:56;;;;;;;7.80;3.63;;;614.70;947.20;;;;;;4937321;29;20028;-69
2021/10/03 10:35:27;;;;;;;7.55;3.92;;;614.80;972.80;;;;;;4937129;29;20039;-69
2021/10/03 10:37:54;;;;;;;6.75;4.53;;;614.90;972.80;;;;;;4936972;29;20055;-69
2021/10/03 10:40:22;;;;;;;7.88;3.70;;;614.90;947.20;;;;;;4937053;29;20055;-68
2021/10/03 10:42:52;;;;;;;11.63;3.70;;;615.10;947.20;;;;;;4936884;29;20027;-68
2021/10/03 10:45:41;;;;;;;11.73;3.72;;;615.00;921.60;;;;;;4937123;29;20107;-72
2021/10/03 10:48:10;;;;;;;6.65;3.63;;;615.00;947.20;;;;;;4936425;29;20075;-68
2021/10/03 10:50:37;;;;;;;7.13;4.13;;;615.00;947.20;;;;;;4929168;29;20478;-68
2021/10/03 10:53:21;;;;;;;11.32;3.70;;;615.00;947.20;;;;;;4892586;29;20043;-68
2021/10/03 10:56:06;;;;;;;9.68;3.65;;;615.10;921.60;;;;;;4917710;29;20080;-68
2021/10/03 10:58:33;;;;;;;16.33;4.68;;;615.20;921.60;;;;;;4914837;29;20046;-68
2021/10/03 11:01:11;;;;;;;5.78;4.00;;;615.20;947.20;;;;;;4930004;29;20023;-68
2021/10/03 11:03:42;;;;;;;6.60;3.72;;;615.30;921.60;;;;;;4935737;29;20030;-68
2021/10/03 11:06:31;;;;;;;9.70;4.03;;;640.00;921.60;;;;;;4935365;29;20419;-68
2021/10/03 11:08:57;;;;;;;6.65;3.75;;;640.00;921.60;;;;;;4876590;29;20037;-68
2021/10/03 11:11:24;;;;;;;9.57;3.92;;;640.10;921.60;;;;;;4876792;29;20048;-68
2021/10/03 11:13:53;;;;;;;9.55;4.35;;;640.10;896.00;;;;;;4876242;29;20039;-68
2021/10/03 11:16:34;;;;;;;7.18;3.75;;;640.10;896.00;;;;;;4876567;29;20040;-68
2021/10/03 11:19:14;;;;;;;9.40;4.32;;;640.20;896.00;;;;;;4876472;29;20029;-69
2021/10/03 11:21:44;;;;;;;6.93;3.85;;;640.20;896.00;;;;;;4876662;29;20124;-68
2021/10/03 11:24:15;;;;;;;6.70;3.78;;;640.20;896.00;;;;;;4876680;29;20063;-68
2021/10/03 11:26:55;;;;;;;9.60;3.40;;;640.30;896.00;;;;;;4876662;29;20151;-68
2021/10/03 11:29:24;;;;;;;8.70;4.30;;;640.30;921.60;;;;;;4876774;29;20060;-68
2021/10/03 11:32:14;;;;;;;9.13;3.63;;;640.30;896.00;;;;;;4877164;29;20512;-69
2021/10/03 11:34:43;;;;;;;10.15;4.40;;;640.50;896.00;;;;;;4840502;29;20033;-68
2021/10/03 11:37:22;;;;;;;7.60;3.42;;;640.50;896.00;;;;;;4843339;29;20561;-67
2021/10/03 11:39:47;;;;;;;6.50;3.35;;;640.50;870.40;;;;;;4843822;29;20038;-68
2021/10/03 11:42:30;;;;;;;7.40;4.50;;;640.50;896.00;;;;;;4844480;29;20022;-69
2021/10/03 11:45:10;;;;;;;24.30;5.68;;;640.60;896.00;;;;;;4842557;29;20034;-68
2021/10/03 11:47:46;;;;;;;9.68;4.15;;;640.60;896.00;;;;;;4880118;29;20180;-68
2021/10/03 11:50:25;;;;;;;11.15;4.38;;;640.60;896.00;;;;;;4879829;29;20195;-68
2021/10/03 11:52:56;;;;;;;7.88;4.10;;;640.60;896.00;;;;;;4880112;29;20041;-68
2021/10/03 11:55:34;;;;;;;5.60;4.00;;;640.60;896.00;;;;;;4880496;29;20384;-68
2021/10/03 11:58:06;;;;;;;12.90;4.85;;;640.60;896.00;;;;;;4879740;29;20068;-68
2021/10/03 12:00:32;;;;;;;10.43;3.90;;;640.70;921.60;;;;;;4880226;29;20025;-67
2021/10/03 12:03:06;;;;;;;10.93;4.00;;;640.70;896.00;;;;;;4879736;29;20443;-69
2021/10/03 12:05:32;;;;;;;;;;;640.80;896.00;;;;;;4880158;29;20044;-69
2021/10/03 12:08:08;;;;;;;11.45;4.90;;;640.80;896.00;;;;;;4879950;29;19908;-68
2021/10/03 12:10:48;;;;;;;7.47;3.42;;;640.80;896.00;;;;;;4878249;29;20440;-67
2021/10/03 12:13:17;;;;;;;12.20;3.47;;;640.80;896.00;;;;;;4932463;29;20467;-68
2021/10/03 12:15:54;;;;;;;9.55;4.00;;;640.80;896.00;;;;;;4937872;29;20030;-69
2021/10/03 12:18:29;;;;;;;7.53;4.18;;;640.80;896.00;;;;;;4937695;29;20031;-68
2021/10/03 12:21:01;;;;;;;8.52;3.75;;;665.60;921.60;;;;;;4937450;29;20036;-68
2021/10/03 12:23:55;;;;;;;5.45;3.88;;;665.60;896.00;;;;;;4937199;29;20103;-68